createdAt,value
2018-12-06T00:00:24.674Z,55.33
2018-12-06T00:02:54.367Z,54.27
2018-12-06T00:05:24.832Z,59.80
2018-12-06T00:08:12.228Z,66.17
2018-12-06T00:13:43.268Z,59.43
2018-12-06T00:16:12.737Z,60.03
2018-12-06T00:18:52.251Z,65.70
2018-12-06T00:21:21.797Z,67.92
2018-12-06T00:23:51.161Z,58.73
2018-12-06T00:29:34.289Z,62.40
2018-12-06T00:32:03.715Z,67.80
2018-12-06T00:34:33.037Z,64.97
2018-12-06T00:37:02.399Z,69.50
2018-12-06T00:39:32.622Z,63.97
2018-12-06T00:42:01.983Z,63.60
2018-12-06T00:44:41.249Z,69.80
2018-12-06T00:47:10.669Z,63.83
2018-12-06T00:49:40.102Z,60.17
2018-12-06T00:52:09.646Z,70.23
2018-12-06T00:54:39.152Z,76.70
2018-12-06T00:57:08.476Z,62.10
2018-12-06T00:59:57.268Z,70.73
2018-12-06T01:02:26.880Z,65.37
2018-12-06T01:04:56.245Z,62.87
2018-12-06T01:07:25.578Z,69.33
2018-12-06T01:18:32.356Z,69.50
2018-12-06T01:21:01.689Z,74.43
2018-12-06T01:23:31.017Z,73.67
2018-12-06T01:26:10.265Z,70.57
2018-12-06T01:28:39.592Z,74.43
2018-12-06T01:31:09.303Z,71.83
2018-12-06T01:33:38.665Z,65.07
2018-12-06T01:39:26.046Z,71.70
2018-12-06T01:41:55.376Z,70.13
2018-12-06T01:44:24.820Z,78.97
2018-12-06T01:46:54.851Z,73.50
2018-12-06T01:49:24.221Z,75.08
2018-12-06T01:51:53.632Z,77.80
2018-12-06T01:54:23.125Z,74.85
2018-12-06T01:56:52.668Z,75.93
2018-12-06T01:59:22.216Z,73.78
2018-12-06T02:04:38.209Z,72.57
2018-12-06T02:07:17.515Z,64.97
2018-12-06T02:09:46.836Z,74.57
2018-12-06T02:12:16.203Z,75.52
2018-12-06T02:15:04.928Z,73.33
2018-12-06T02:17:34.963Z,80.90
2018-12-06T02:20:05.635Z,78.35
2018-12-06T02:22:35.421Z,81.27
2018-12-06T02:25:05.224Z,81.60
2018-12-06T02:27:34.697Z,78.57
2018-12-06T02:30:04.889Z,81.20
2018-12-06T02:35:25.757Z,78.10
2018-12-06T02:37:55.308Z,89.37
2018-12-06T02:40:24.636Z,80.73
2018-12-06T02:42:54.290Z,85.67
2018-12-06T02:45:23.689Z,66.33
2018-12-06T02:51:15.172Z,78.87
2018-12-06T02:53:44.998Z,78.53
2018-12-06T02:56:14.437Z,78.23
2018-12-06T02:59:03.525Z,72.70
2018-12-06T03:01:32.961Z,75.57
2018-12-06T03:04:02.576Z,72.07
2018-12-06T03:06:42.030Z,62.70
2018-12-06T03:09:11.559Z,77.87
2018-12-06T03:14:28.513Z,73.10
2018-12-06T03:16:57.927Z,67.83
2018-12-06T03:19:29.147Z,75.17
2018-12-06T03:21:58.721Z,73.45
2018-12-06T03:24:29.308Z,68.97
2018-12-06T03:30:08.775Z,72.17
2018-12-06T03:32:38.215Z,63.77
2018-12-06T03:35:07.883Z,67.10
2018-12-06T03:41:05.897Z,78.67
2018-12-06T03:43:35.334Z,69.10
2018-12-06T03:46:06.129Z,67.77
2018-12-06T03:48:45.671Z,72.17
2018-12-06T03:51:15.000Z,71.80
2018-12-06T03:54:03.727Z,71.53
2018-12-06T03:56:33.089Z,73.27
2018-12-06T04:01:48.760Z,71.40
2018-12-06T04:04:18.143Z,81.80
2018-12-06T04:09:53.712Z,77.90
2018-12-06T04:12:23.240Z,76.75
2018-12-06T04:15:02.672Z,76.30
2018-12-06T04:17:32.035Z,77.00
2018-12-06T04:20:01.371Z,83.73
2018-12-06T04:22:30.739Z,78.97
2018-12-06T04:25:00.097Z,80.20
2018-12-06T04:27:29.432Z,84.63
2018-12-06T04:29:59.772Z,85.53
2018-12-06T04:32:29.088Z,89.53
2018-12-06T04:35:08.318Z,102.20
2018-12-06T04:37:47.606Z,96.87
2018-12-06T04:40:17.105Z,87.85
2018-12-06T04:42:56.449Z,102.77
2018-12-06T04:48:22.175Z,89.63
2018-12-06T04:50:51.875Z,111.90
2018-12-06T04:53:22.429Z,105.20
2018-12-06T04:55:52.900Z,93.10
2018-12-06T04:58:22.513Z,92.17
2018-12-06T05:08:13.897Z,99.57
2018-12-06T05:13:28.707Z,89.27
2018-12-06T05:15:58.052Z,85.83
2018-12-06T05:18:27.400Z,88.72
2018-12-06T05:20:58.303Z,92.73
2018-12-06T05:26:46.247Z,91.83
2018-12-06T05:29:16.787Z,97.88
2018-12-06T05:31:46.132Z,103.27
2018-12-06T05:34:15.698Z,93.10
2018-12-06T05:36:48.933Z,91.83
2018-12-06T05:39:18.300Z,109.13
2018-12-06T05:41:47.765Z,97.70
2018-12-06T05:44:17.120Z,86.20
2018-12-06T05:46:46.488Z,90.87
2018-12-06T05:52:12.473Z,86.30
2018-12-06T05:54:51.809Z,85.10
2018-12-06T05:57:21.231Z,80.90
2018-12-06T05:59:50.642Z,77.70
2018-12-06T06:02:20.746Z,92.00
2018-12-06T06:04:50.075Z,87.53
2018-12-06T06:07:19.432Z,92.60
2018-12-06T06:09:48.756Z,84.50
2018-12-06T06:12:19.733Z,92.07
2018-12-06T06:15:08.528Z,100.83
2018-12-06T06:17:37.872Z,100.10
2018-12-06T06:20:08.085Z,118.57
2018-12-06T06:22:37.442Z,118.10
2018-12-06T06:25:07.011Z,119.43
2018-12-06T06:27:36.372Z,113.97
2018-12-06T06:30:06.983Z,119.70
2018-12-06T06:32:46.229Z,107.40
2018-12-06T06:38:33.640Z,121.50
2018-12-06T06:41:02.960Z,120.10
2018-12-06T06:43:32.312Z,119.63
2018-12-06T06:54:05.536Z,148.13
2018-12-06T06:56:35.083Z,134.60
2018-12-06T06:59:04.466Z,144.45
2018-12-06T07:01:33.812Z,149.43
2018-12-06T07:04:05.217Z,131.07
2018-12-06T07:06:34.820Z,163.60
2018-12-06T07:09:07.245Z,151.73
2018-12-06T07:11:46.992Z,140.63
2018-12-06T07:14:16.442Z,147.03
2018-12-06T07:17:05.179Z,152.93
2018-12-06T07:19:34.491Z,158.67
2018-12-06T07:22:03.848Z,140.27
2018-12-06T07:24:33.175Z,144.93
2018-12-06T07:30:30.919Z,161.67
2018-12-06T07:33:00.253Z,150.13
2018-12-06T07:35:29.582Z,163.27
2018-12-06T07:37:58.944Z,153.43
2018-12-06T07:40:28.332Z,168.03
2018-12-06T07:49:33.586Z,165.90
2018-12-06T07:55:00.785Z,173.07
2018-12-06T07:57:30.347Z,201.00
2018-12-06T07:59:59.780Z,188.40
2018-12-06T08:02:29.251Z,223.72
2018-12-06T08:04:58.645Z,190.03
2018-12-06T08:10:40.819Z,170.80
2018-12-06T08:13:29.629Z,181.90
2018-12-06T08:16:00.110Z,196.77
2018-12-06T08:18:29.477Z,222.40
2018-12-06T08:20:58.848Z,219.00
2018-12-06T08:23:28.223Z,200.60
2018-12-06T08:25:57.584Z,179.87
2018-12-06T08:28:26.912Z,202.93
2018-12-06T08:30:56.225Z,222.53
2018-12-06T08:33:25.574Z,229.53
2018-12-06T08:35:55.009Z,238.77
2018-12-06T08:38:25.377Z,243.57
2018-12-06T08:40:54.718Z,392.77
2018-12-06T08:43:24.096Z,205.60
2018-12-06T08:45:53.442Z,259.10
2018-12-06T08:48:22.933Z,286.65
2018-12-06T08:50:52.243Z,269.57
2018-12-06T08:53:21.710Z,305.27
2018-12-06T08:58:17.375Z,344.97
2018-12-06T09:00:46.733Z,328.30
2018-12-06T09:03:16.150Z,283.67
2018-12-06T09:05:45.591Z,346.93
2018-12-06T09:08:15.174Z,415.30
2018-12-06T09:10:51.299Z,325.50
2018-12-06T09:13:15.985Z,284.83
2018-12-06T09:15:45.745Z,357.13
2018-12-06T09:18:15.137Z,294.67
2018-12-06T09:20:44.498Z,297.17
2018-12-06T09:23:13.840Z,287.48
2018-12-06T09:25:43.277Z,281.60
2018-12-06T09:28:12.621Z,271.33
2018-12-06T09:30:42.006Z,275.07
2018-12-06T09:33:11.380Z,320.67
2018-12-06T09:35:40.822Z,309.60
2018-12-06T09:38:10.148Z,313.75
2018-12-06T09:40:39.509Z,291.23
2018-12-06T09:43:08.987Z,271.90
2018-12-06T09:45:38.518Z,248.10
2018-12-06T09:48:07.964Z,254.13
2018-12-06T09:50:37.351Z,290.00
2018-12-06T09:53:06.936Z,268.67
2018-12-06T09:55:36.313Z,296.57
2018-12-06T09:58:06.162Z,218.13
2018-12-06T10:00:35.589Z,245.97
2018-12-06T10:03:06.253Z,210.20
2018-12-06T10:05:35.603Z,230.73
2018-12-06T10:08:06.183Z,205.70
2018-12-06T10:10:35.533Z,205.07
2018-12-06T10:13:06.108Z,222.23
2018-12-06T10:15:35.440Z,226.37
2018-12-06T10:18:04.857Z,190.30
2018-12-06T10:20:34.178Z,192.57
2018-12-06T10:23:03.507Z,185.87
2018-12-06T10:25:32.840Z,220.47
2018-12-06T10:28:02.177Z,214.20
2018-12-06T10:30:31.506Z,207.07
2018-12-06T10:33:00.944Z,254.53
2018-12-06T10:35:30.314Z,263.57
2018-12-06T10:37:59.728Z,218.10
2018-12-06T10:40:29.094Z,266.47
2018-12-06T10:42:58.425Z,276.50
2018-12-06T10:45:27.759Z,291.33
2018-12-06T10:47:57.226Z,262.30
2018-12-06T10:50:26.660Z,252.53
2018-12-06T10:52:55.988Z,341.52
2018-12-06T10:55:25.357Z,301.47
2018-12-06T10:57:54.692Z,274.93
2018-12-06T11:00:29.863Z,284.63
2018-12-06T11:03:04.296Z,284.77
2018-12-06T11:05:33.628Z,222.30
2018-12-06T11:08:02.985Z,222.47
2018-12-06T11:10:32.396Z,173.63
2018-12-06T11:13:01.809Z,170.17
2018-12-06T11:15:31.161Z,162.03
2018-12-06T11:18:00.516Z,163.30
2018-12-06T11:20:29.872Z,142.30
2018-12-06T11:22:59.182Z,158.60
2018-12-06T11:25:28.501Z,124.50
2018-12-06T11:27:57.839Z,119.87
2018-12-06T11:30:27.211Z,115.27
2018-12-06T11:32:56.548Z,106.67
2018-12-06T11:35:25.900Z,110.47
2018-12-06T11:37:55.244Z,95.93
2018-12-06T11:40:24.656Z,98.70
2018-12-06T11:42:54.004Z,92.10
2018-12-06T11:45:23.383Z,87.00
2018-12-06T11:47:52.728Z,83.60
2018-12-06T11:50:22.173Z,86.37
2018-12-06T11:52:51.489Z,82.83
2018-12-06T11:58:00.744Z,81.50
2018-12-06T12:00:30.344Z,75.57
2018-12-06T12:02:59.670Z,69.90
2018-12-06T12:05:29.046Z,73.37
2018-12-06T12:07:58.367Z,68.70
2018-12-06T12:10:27.821Z,64.50
2018-12-06T12:12:57.171Z,60.88
2018-12-06T12:15:26.564Z,60.27
2018-12-06T12:17:55.923Z,60.03
2018-12-06T12:20:25.362Z,60.73
2018-12-06T12:22:54.811Z,63.63
2018-12-06T12:25:24.163Z,55.90
2018-12-06T12:27:53.528Z,59.50
2018-12-06T12:30:22.908Z,63.77
2018-12-06T12:32:52.366Z,71.43
2018-12-06T12:35:21.773Z,67.53
2018-12-06T12:37:51.102Z,66.80
2018-12-06T12:40:20.488Z,61.48
2018-12-06T12:42:49.829Z,53.73
2018-12-06T12:45:19.309Z,51.30
2018-12-06T12:47:48.660Z,56.80
2018-12-06T12:50:17.999Z,47.13
2018-12-06T12:52:47.340Z,45.00
2018-12-06T12:55:16.815Z,44.20
2018-12-06T12:57:46.179Z,46.50
2018-12-06T13:00:15.704Z,47.40
2018-12-06T13:02:45.045Z,44.43
2018-12-06T13:05:14.468Z,45.37
2018-12-06T13:07:43.789Z,42.80
2018-12-06T13:10:13.283Z,42.67
2018-12-06T13:12:42.616Z,41.93
2018-12-06T13:15:12.109Z,43.40
2018-12-06T13:17:41.496Z,38.97
2018-12-06T13:20:11.065Z,44.40
2018-12-06T13:22:40.433Z,40.73
2018-12-06T13:25:09.779Z,44.23
2018-12-06T13:27:39.204Z,40.67
2018-12-06T13:30:08.764Z,39.53
2018-12-06T13:32:38.210Z,38.83
2018-12-06T13:35:07.747Z,37.83
2018-12-06T13:37:37.076Z,38.13
2018-12-06T13:40:13.241Z,40.33
2018-12-06T13:42:42.736Z,36.07
2018-12-06T13:45:12.225Z,37.33
2018-12-06T13:47:41.613Z,36.77
2018-12-06T13:50:11.177Z,36.70
2018-12-06T13:52:40.548Z,34.07
2018-12-06T13:55:10.142Z,36.50
2018-12-06T13:57:39.540Z,38.23
2018-12-06T14:00:09.013Z,38.13
2018-12-06T14:02:38.337Z,33.93
2018-12-06T14:05:07.889Z,36.13
2018-12-06T14:07:37.258Z,33.70
2018-12-06T14:10:06.813Z,35.83
2018-12-06T14:12:36.259Z,33.70
2018-12-06T14:15:06.488Z,34.78
2018-12-06T14:17:35.834Z,32.00
2018-12-06T14:20:09.109Z,35.40
2018-12-06T14:22:38.461Z,36.20
2018-12-06T14:27:52.708Z,33.27
2018-12-06T14:30:22.142Z,36.93
2018-12-06T14:32:51.500Z,36.53
2018-12-06T14:35:21.927Z,33.05
2018-12-06T14:37:51.288Z,31.17
2018-12-06T14:40:20.700Z,35.23
2018-12-06T14:42:50.140Z,34.63
2018-12-06T14:45:19.522Z,36.90
2018-12-06T14:47:48.930Z,40.33
2018-12-06T14:50:18.274Z,39.88
2018-12-06T14:52:47.578Z,38.43
2018-12-06T14:55:16.905Z,39.97
2018-12-06T14:57:46.229Z,37.60
2018-12-06T15:00:15.796Z,38.63
2018-12-06T15:02:45.187Z,35.53
2018-12-06T15:05:14.614Z,38.10
2018-12-06T15:07:44.029Z,34.13
2018-12-06T15:10:13.500Z,38.90
2018-12-06T15:12:42.909Z,37.60
2018-12-06T15:15:12.417Z,34.23
2018-12-06T15:17:41.733Z,35.07
2018-12-06T15:20:11.284Z,36.75
2018-12-06T15:22:40.637Z,32.00
2018-12-06T15:25:10.076Z,32.90
2018-12-06T15:27:39.800Z,31.70
2018-12-06T15:30:11.002Z,28.00
2018-12-06T15:32:40.337Z,30.60
2018-12-06T15:35:10.114Z,31.93
2018-12-06T15:37:39.587Z,31.47
2018-12-06T15:40:09.416Z,28.53
2018-12-06T15:42:38.883Z,26.47
2018-12-06T15:45:10.040Z,22.58
2018-12-06T15:47:39.529Z,22.50
2018-12-06T15:52:49.224Z,17.27
2018-12-06T15:55:18.789Z,20.93
2018-12-06T15:57:48.244Z,22.77
2018-12-06T16:00:17.703Z,23.38
2018-12-06T16:02:47.227Z,24.73
2018-12-06T16:05:16.670Z,22.83
2018-12-06T16:07:46.022Z,22.30
2018-12-06T16:10:15.417Z,25.08
2018-12-06T16:12:44.832Z,23.97
2018-12-06T16:15:14.552Z,21.67
2018-12-06T16:17:43.897Z,19.47
2018-12-06T16:22:54.605Z,22.60
2018-12-06T16:25:24.161Z,18.85
2018-12-06T16:27:53.522Z,19.53
2018-12-06T16:30:23.020Z,19.05
2018-12-06T16:32:52.740Z,23.77
2018-12-06T16:35:22.554Z,21.13
2018-12-06T16:37:58.333Z,22.13
2018-12-06T16:40:27.816Z,19.03
2018-12-06T16:42:57.153Z,20.40
2018-12-06T16:45:26.680Z,18.27
2018-12-06T16:47:56.094Z,18.20
2018-12-06T16:53:06.008Z,20.53
2018-12-06T16:55:35.338Z,21.37
2018-12-06T16:58:05.006Z,22.07
2018-12-06T17:00:34.733Z,21.50
2018-12-06T17:03:04.382Z,24.90
2018-12-06T17:05:34.228Z,31.27
2018-12-06T17:08:04.684Z,32.73
2018-12-06T17:10:34.780Z,31.70
2018-12-06T17:13:05.311Z,30.27
2018-12-06T17:15:35.090Z,33.80
2018-12-06T17:18:04.897Z,34.63
2018-12-06T17:20:34.763Z,33.47
2018-12-06T17:23:09.209Z,37.23
2018-12-06T17:25:38.989Z,37.67
2018-12-06T17:28:08.924Z,42.23
2018-12-06T17:30:46.121Z,39.57
2018-12-06T17:33:15.952Z,37.38
2018-12-06T17:35:46.784Z,40.48
2018-12-06T17:38:16.710Z,41.60
2018-12-06T17:40:46.542Z,44.67
2018-12-06T17:43:16.154Z,44.00
2018-12-06T17:45:45.766Z,43.07
2018-12-06T17:48:15.130Z,37.53
2018-12-06T17:53:25.061Z,46.07
2018-12-06T17:55:56.011Z,45.73
2018-12-06T17:58:25.460Z,43.23
2018-12-06T18:00:55.122Z,49.80
2018-12-06T18:03:24.596Z,44.23
2018-12-06T18:05:54.320Z,45.37
2018-12-06T18:08:23.856Z,44.73
2018-12-06T18:10:53.316Z,45.43
2018-12-06T18:13:22.805Z,43.98
2018-12-06T18:15:52.926Z,41.17
2018-12-06T18:18:22.496Z,43.63
2018-12-06T18:20:51.942Z,40.00
2018-12-06T18:26:05.652Z,47.20
2018-12-06T18:28:35.006Z,40.63
2018-12-06T18:31:05.987Z,45.90
2018-12-06T18:33:35.333Z,43.40
2018-12-06T18:36:05.951Z,47.73
2018-12-06T18:38:35.344Z,44.60
2018-12-06T18:41:06.051Z,43.33
2018-12-06T18:43:35.506Z,47.03
2018-12-06T18:46:06.146Z,48.43
2018-12-06T18:48:35.516Z,41.80
2018-12-06T18:56:16.936Z,47.23
2018-12-06T18:58:46.328Z,52.50
2018-12-06T19:01:15.825Z,48.33
2018-12-06T19:03:45.209Z,42.20
2018-12-06T19:06:14.550Z,47.13
2018-12-06T19:08:44.028Z,48.07
2018-12-06T19:11:13.362Z,44.10
2018-12-06T19:13:42.777Z,45.60
2018-12-06T19:16:12.125Z,51.02
2018-12-06T19:18:41.923Z,50.60
2018-12-06T19:21:11.272Z,51.93
2018-12-06T19:23:40.741Z,47.50
2018-12-06T19:26:10.095Z,48.95
2018-12-06T19:28:39.439Z,45.47
2018-12-06T19:31:08.816Z,42.13
2018-12-06T19:33:39.685Z,51.28
2018-12-06T19:38:49.658Z,38.40
2018-12-06T19:41:19.607Z,43.10
2018-12-06T19:43:49.140Z,36.55
2018-12-06T19:46:18.596Z,43.03
2018-12-06T19:48:48.034Z,35.80
2018-12-06T19:51:17.423Z,40.67
2018-12-06T19:53:46.877Z,39.87
2018-12-06T19:56:16.582Z,36.50
2018-12-06T19:58:45.923Z,34.83
2018-12-06T20:01:15.360Z,35.28
2018-12-06T20:03:44.678Z,36.63
2018-12-06T20:06:14.131Z,37.43
2018-12-06T20:08:43.483Z,34.93
2018-12-06T20:11:13.168Z,33.47
2018-12-06T20:13:42.520Z,32.53
2018-12-06T20:16:11.990Z,34.75
2018-12-06T20:18:41.462Z,37.43
2018-12-06T20:21:10.951Z,38.20
2018-12-06T20:23:40.337Z,34.97
2018-12-06T20:26:09.745Z,37.27
2018-12-06T20:28:39.089Z,38.17
2018-12-06T20:31:08.531Z,35.60
2018-12-06T20:33:38.046Z,35.43
2018-12-06T20:36:07.814Z,37.33
2018-12-06T20:38:37.515Z,32.13
2018-12-06T20:41:07.223Z,30.27
2018-12-06T20:43:37.431Z,30.97
2018-12-06T20:46:07.754Z,33.00
2018-12-06T20:48:37.366Z,32.90
2018-12-06T20:51:07.003Z,30.47
2018-12-06T20:53:36.485Z,24.93
2018-12-06T20:56:06.981Z,32.35
2018-12-06T20:58:37.533Z,24.40
2018-12-06T21:01:14.818Z,30.83
2018-12-06T21:03:44.346Z,29.20
2018-12-06T21:06:14.026Z,26.12
2018-12-06T21:08:43.829Z,21.80
2018-12-06T21:11:13.637Z,24.50
2018-12-06T21:13:43.373Z,20.23
2018-12-06T21:16:14.611Z,20.40
2018-12-06T21:18:45.442Z,19.83
2018-12-06T21:21:15.237Z,21.20
2018-12-06T21:23:45.274Z,18.20
2018-12-06T21:26:15.055Z,15.10
2018-12-06T21:28:45.665Z,13.90
2018-12-06T21:31:16.500Z,10.63
2018-12-06T21:33:46.227Z,11.10
2018-12-06T21:36:16.595Z,12.77
2018-12-06T21:38:46.378Z,10.50
2018-12-06T21:41:16.175Z,9.10
2018-12-06T21:43:45.836Z,8.57
2018-12-06T21:46:18.612Z,7.50
2018-12-06T21:48:48.180Z,9.20
2018-12-06T21:51:17.814Z,7.80
2018-12-06T21:53:50.798Z,5.85
2018-12-06T21:56:20.388Z,6.03
2018-12-06T21:58:49.763Z,6.80
2018-12-06T22:01:19.169Z,6.30
2018-12-06T22:03:48.485Z,6.37
2018-12-06T22:06:17.820Z,9.25
2018-12-06T22:08:47.233Z,8.10
2018-12-06T22:11:18.525Z,10.80
2018-12-06T22:16:28.336Z,9.83
2018-12-06T22:18:57.672Z,8.03
2018-12-06T22:21:27.009Z,10.03
2018-12-06T22:23:56.358Z,11.93
2018-12-06T22:26:25.689Z,11.27
2018-12-06T22:28:55.040Z,11.03
2018-12-06T22:31:24.381Z,12.05
2018-12-06T22:33:53.787Z,14.20
2018-12-06T22:36:23.984Z,10.37
2018-12-06T22:38:53.342Z,11.87
2018-12-06T22:41:22.736Z,11.33
2018-12-06T22:46:32.979Z,12.57
2018-12-06T22:49:02.483Z,16.37
2018-12-06T22:51:31.810Z,13.73
2018-12-06T22:54:01.159Z,10.67
2018-12-06T22:56:30.524Z,12.33
2018-12-06T22:58:59.913Z,16.50
2018-12-06T23:01:34.693Z,12.17
2018-12-06T23:04:04.221Z,11.88
2018-12-06T23:06:34.201Z,14.93
2018-12-06T23:09:05.352Z,14.53
2018-12-06T23:11:34.802Z,18.03
2018-12-06T23:14:04.670Z,19.05
2018-12-06T23:16:34.189Z,16.40
2018-12-06T23:21:43.933Z,17.83
2018-12-06T23:24:13.321Z,13.03
2018-12-06T23:26:42.714Z,12.90
2018-12-06T23:29:12.080Z,10.90
2018-12-06T23:31:41.439Z,15.37
2018-12-06T23:34:11.142Z,12.18
2018-12-06T23:36:40.465Z,9.57
2018-12-06T23:39:09.898Z,8.53
2018-12-06T23:44:19.752Z,11.10
2018-12-06T23:46:49.127Z,6.83
2018-12-06T23:49:18.445Z,9.60
2018-12-06T23:51:47.860Z,8.43
2018-12-06T23:54:17.201Z,10.13
2018-12-06T23:56:46.639Z,10.37
2018-12-06T23:59:15.960Z,10.55
